createdAt,value
2023-01-13T00:01:44.828Z,5.68
2023-01-13T00:06:46.890Z,6.35
2023-01-13T00:11:49.070Z,5.00
2023-01-13T00:16:51.123Z,5.18
2023-01-13T00:21:53.179Z,5.93
2023-01-13T00:26:55.328Z,5.68
2023-01-13T00:31:58.334Z,6.10
2023-01-13T00:37:00.427Z,4.63
2023-01-13T00:42:21.240Z,6.57
2023-01-13T00:47:25.916Z,4.70
2023-01-13T00:52:27.938Z,4.60
2023-01-13T00:57:29.988Z,4.95
2023-01-13T01:02:32.050Z,4.95
2023-01-13T01:07:34.191Z,5.57
2023-01-13T01:12:36.385Z,6.07
2023-01-13T01:17:38.584Z,5.88
2023-01-13T01:22:40.733Z,6.10
2023-01-13T01:27:42.771Z,5.20
2023-01-13T01:32:44.941Z,5.68
2023-01-13T01:37:47.118Z,5.05
2023-01-13T01:43:07.941Z,4.93
2023-01-13T01:48:11.406Z,5.97
2023-01-13T01:53:16.531Z,6.57
2023-01-13T01:58:31.494Z,6.97
2023-01-13T02:03:40.232Z,5.65
2023-01-13T02:08:42.271Z,8.23
2023-01-13T02:13:44.322Z,6.20
2023-01-13T02:19:12.504Z,7.47
2023-01-13T02:24:51.931Z,5.93
2023-01-13T02:30:18.769Z,4.50
2023-01-13T02:35:45.696Z,4.97
2023-01-13T02:41:21.403Z,5.80
2023-01-13T02:46:23.378Z,5.28
2023-01-13T02:51:30.081Z,5.28
2023-01-13T02:56:34.957Z,5.35
2023-01-13T03:01:37.170Z,5.22
2023-01-13T03:06:54.347Z,4.80
2023-01-13T03:12:11.113Z,3.30
2023-01-13T03:17:30.186Z,4.88
2023-01-13T03:22:55.948Z,4.13
2023-01-13T03:28:11.064Z,4.00
2023-01-13T03:33:20.107Z,4.00
2023-01-13T03:38:28.516Z,3.53
2023-01-13T03:43:59.565Z,4.13
2023-01-13T03:49:04.121Z,4.07
2023-01-13T03:54:11.512Z,4.28
2023-01-13T03:59:21.584Z,3.65
2023-01-13T04:04:35.919Z,3.85
2023-01-13T04:09:57.064Z,4.70
2023-01-13T04:14:59.155Z,3.50
2023-01-13T04:20:01.196Z,4.03
2023-01-13T04:25:05.577Z,4.00
2023-01-13T04:30:08.512Z,3.00
2023-01-13T04:35:10.729Z,3.47
2023-01-13T04:40:13.052Z,3.80
2023-01-13T04:45:15.159Z,3.08
2023-01-13T04:50:19.910Z,2.78
2023-01-13T04:55:24.042Z,2.90
2023-01-13T05:00:26.131Z,3.67
2023-01-13T05:05:29.920Z,4.32
2023-01-13T05:10:32.187Z,3.10
2023-01-13T05:15:52.501Z,3.33
2023-01-13T05:20:54.600Z,3.20
2023-01-13T05:25:56.752Z,2.97
2023-01-13T05:30:58.981Z,3.17
2023-01-13T05:36:03.095Z,2.80
2023-01-13T05:41:23.612Z,3.20
2023-01-13T05:46:25.855Z,3.75
2023-01-13T05:51:28.084Z,4.35
2023-01-13T05:56:30.157Z,2.67
2023-01-13T06:01:32.287Z,3.20
2023-01-13T06:06:34.417Z,3.78
2023-01-13T06:11:36.953Z,3.00
2023-01-13T06:16:39.041Z,3.70
2023-01-13T06:21:41.763Z,3.22
2023-01-13T06:26:43.958Z,3.60
2023-01-13T06:31:46.069Z,3.53
2023-01-13T06:36:52.409Z,3.55
2023-01-13T06:42:13.247Z,3.55
2023-01-13T06:47:15.317Z,2.87
2023-01-13T06:52:17.439Z,3.70
2023-01-13T06:57:19.522Z,3.90
2023-01-13T07:02:21.788Z,3.65
2023-01-13T07:07:23.930Z,3.08
2023-01-13T07:12:26.083Z,2.88
2023-01-13T07:17:28.137Z,3.90
2023-01-13T07:22:30.225Z,3.97
2023-01-13T07:27:32.334Z,3.10
2023-01-13T07:32:34.540Z,3.58
2023-01-13T07:37:39.404Z,3.65
2023-01-13T07:43:00.055Z,2.80
2023-01-13T07:48:02.130Z,3.03
2023-01-13T07:53:04.489Z,3.42
2023-01-13T07:58:06.572Z,2.72
2023-01-13T08:03:08.823Z,2.63
2023-01-13T08:08:11.135Z,3.08
2023-01-13T08:13:20.175Z,3.08
2023-01-13T08:18:23.071Z,3.92
2023-01-13T08:23:25.169Z,3.65
2023-01-13T08:28:27.376Z,3.70
2023-01-13T08:33:31.194Z,3.75
2023-01-13T08:38:34.653Z,3.63
2023-01-13T08:43:36.742Z,3.30
2023-01-13T08:48:38.958Z,3.80
2023-01-13T08:53:41.232Z,2.95
2023-01-13T08:58:43.521Z,4.22
2023-01-13T09:03:45.894Z,3.33
2023-01-13T09:08:48.160Z,3.33
2023-01-13T09:13:50.646Z,3.53
2023-01-13T09:18:52.827Z,3.30
2023-01-13T09:23:54.880Z,4.40
2023-01-13T09:28:56.953Z,3.78
2023-01-13T09:34:37.740Z,3.80
2023-01-13T09:39:40.026Z,2.95
2023-01-13T09:44:57.679Z,3.38
2023-01-13T09:50:06.402Z,3.92
2023-01-13T09:55:11.278Z,3.03
2023-01-13T10:00:23.459Z,2.97
2023-01-13T10:05:40.875Z,3.40
2023-01-13T10:10:48.422Z,4.35
2023-01-13T10:15:54.912Z,3.25
2023-01-13T10:21:02.949Z,3.20
2023-01-13T10:26:21.129Z,2.53
2023-01-13T10:31:25.337Z,3.03
2023-01-13T10:36:27.742Z,3.35
2023-01-13T10:41:30.591Z,3.20
2023-01-13T10:46:36.945Z,3.00
2023-01-13T10:51:38.996Z,3.53
2023-01-13T10:56:47.188Z,3.08
2023-01-13T11:02:00.233Z,3.60
2023-01-13T11:07:05.746Z,3.85
2023-01-13T11:12:30.854Z,3.30
2023-01-13T11:17:38.622Z,3.10
2023-01-13T11:22:48.056Z,3.50
2023-01-13T11:28:27.403Z,2.97
2023-01-13T11:34:07.417Z,3.65
2023-01-13T11:39:24.640Z,2.92
2023-01-13T11:44:41.385Z,3.03
2023-01-13T11:49:48.610Z,2.60
2023-01-13T11:55:24.544Z,2.78
2023-01-13T12:00:41.574Z,3.40
2023-01-13T12:06:11.568Z,2.97
2023-01-13T12:11:31.499Z,2.97
2023-01-13T12:16:34.041Z,3.92
2023-01-13T12:21:39.089Z,3.35
2023-01-13T12:26:49.466Z,3.88
2023-01-13T12:31:52.412Z,4.15
2023-01-13T12:37:11.068Z,4.65
2023-01-13T12:42:37.743Z,4.15
2023-01-13T12:47:45.743Z,4.50
2023-01-13T12:52:48.583Z,3.95
2023-01-13T12:58:06.894Z,4.40
2023-01-13T13:03:15.473Z,3.92
2023-01-13T13:08:21.080Z,4.15
2023-01-13T13:13:48.439Z,4.13
2023-01-13T13:18:50.551Z,4.75
2023-01-13T13:23:55.583Z,3.83
2023-01-13T13:29:34.887Z,3.75
2023-01-13T13:34:55.699Z,4.75
2023-01-13T13:40:16.344Z,4.57
2023-01-13T13:45:43.287Z,4.90
2023-01-13T13:50:50.895Z,5.28
2023-01-13T13:55:59.877Z,5.50
2023-01-13T14:01:07.565Z,5.30
2023-01-13T14:06:24.390Z,4.82
2023-01-13T14:11:32.620Z,6.07
2023-01-13T14:16:37.485Z,5.97
2023-01-13T14:21:39.659Z,6.40
2023-01-13T14:26:42.291Z,4.78
2023-01-13T14:31:45.237Z,5.88
2023-01-13T14:36:51.397Z,6.07
2023-01-13T14:41:53.810Z,5.60
2023-01-13T14:47:17.365Z,6.13
2023-01-13T14:52:22.195Z,5.88
2023-01-13T14:57:29.066Z,6.22
2023-01-13T15:02:31.358Z,4.28
2023-01-13T15:07:33.805Z,6.00
2023-01-13T15:12:40.753Z,7.47
2023-01-13T15:17:42.862Z,6.30
2023-01-13T15:22:45.899Z,7.18
2023-01-13T15:27:51.850Z,7.40
2023-01-13T15:32:55.601Z,6.85
2023-01-13T15:37:58.362Z,6.68
2023-01-13T15:43:19.210Z,6.40
2023-01-13T15:48:23.211Z,7.37
2023-01-13T15:53:25.871Z,7.35
2023-01-13T15:58:30.641Z,7.60
2023-01-13T16:03:32.767Z,8.43
2023-01-13T16:08:35.078Z,7.18
2023-01-13T16:13:37.368Z,7.85
2023-01-13T16:18:39.539Z,8.38
2023-01-13T16:23:42.018Z,7.68
2023-01-13T16:28:44.133Z,7.90
2023-01-13T16:33:46.295Z,7.72
2023-01-13T16:38:50.784Z,8.95
2023-01-13T16:43:53.302Z,8.00
2023-01-13T16:49:03.257Z,8.32
2023-01-13T16:54:05.659Z,8.20
2023-01-13T16:59:14.628Z,7.32
2023-01-13T17:04:21.968Z,6.85
2023-01-13T17:09:26.633Z,7.78
2023-01-13T17:14:28.713Z,8.18
2023-01-13T17:19:30.825Z,7.68
2023-01-13T17:24:35.238Z,4.47
2023-01-13T17:29:38.259Z,8.27
2023-01-13T17:34:40.358Z,8.52
2023-01-13T17:39:44.390Z,8.38
2023-01-13T17:44:48.088Z,8.20
2023-01-13T17:49:50.165Z,8.85
2023-01-13T17:54:52.919Z,8.68
2023-01-13T17:59:55.057Z,5.35
2023-01-13T18:04:57.144Z,8.30
2023-01-13T18:09:59.244Z,8.52
2023-01-13T18:15:01.341Z,8.35
2023-01-13T18:20:24.279Z,8.18
2023-01-13T18:25:44.796Z,8.70
2023-01-13T18:30:48.269Z,8.13
2023-01-13T18:35:50.754Z,8.25
2023-01-13T18:40:52.937Z,8.10
2023-01-13T18:45:55.088Z,7.10
2023-01-13T18:50:57.244Z,8.68
2023-01-13T18:55:59.319Z,7.70
2023-01-13T19:01:06.098Z,8.07
2023-01-13T19:06:14.289Z,8.13
2023-01-13T19:11:16.608Z,7.78
2023-01-13T19:16:21.620Z,8.10
2023-01-13T19:21:24.781Z,8.38
2023-01-13T19:26:27.443Z,7.50
2023-01-13T19:31:29.607Z,7.25
2023-01-13T19:36:31.959Z,7.50
2023-01-13T19:41:53.001Z,7.95
2023-01-13T19:46:55.060Z,7.00
2023-01-13T19:51:57.167Z,7.82
2023-01-13T19:56:59.290Z,8.13
2023-01-13T20:02:03.940Z,8.27
2023-01-13T20:07:06.775Z,7.68
2023-01-13T20:12:13.193Z,8.85
2023-01-13T20:17:17.209Z,8.18
2023-01-13T20:22:19.384Z,7.80
2023-01-13T20:27:22.691Z,7.93
2023-01-13T20:32:24.953Z,7.97
2023-01-13T20:37:27.193Z,9.07
2023-01-13T20:42:39.782Z,8.73
2023-01-13T20:47:41.855Z,7.45
2023-01-13T20:52:44.486Z,8.82
2023-01-13T20:57:48.958Z,7.60
2023-01-13T21:02:51.135Z,8.25
2023-01-13T21:07:53.349Z,7.63
2023-01-13T21:13:14.209Z,6.97
2023-01-13T21:18:34.791Z,7.67
2023-01-13T21:23:37.275Z,6.35
2023-01-13T21:28:39.320Z,7.18
2023-01-13T21:33:41.601Z,7.43
2023-01-13T21:38:43.728Z,7.95
2023-01-13T21:44:04.377Z,7.47
2023-01-13T21:49:06.787Z,6.72
2023-01-13T21:54:09.000Z,7.57
2023-01-13T21:59:11.076Z,6.82
2023-01-13T22:04:13.135Z,6.72
2023-01-13T22:09:15.307Z,6.07
2023-01-13T22:14:17.493Z,7.68
2023-01-13T22:19:19.814Z,7.03
2023-01-13T22:24:23.018Z,5.50
2023-01-13T22:29:25.177Z,7.63
2023-01-13T22:34:27.378Z,7.00
2023-01-13T22:39:29.920Z,7.50
2023-01-13T22:44:33.510Z,8.80
2023-01-13T22:49:35.609Z,6.57
2023-01-13T22:54:37.632Z,6.22
2023-01-13T22:59:39.783Z,6.45
2023-01-13T23:04:41.908Z,6.63
2023-01-13T23:09:44.070Z,5.93
2023-01-13T23:14:46.227Z,7.85
2023-01-13T23:19:48.260Z,7.85
2023-01-13T23:24:50.346Z,6.95
2023-01-13T23:29:52.433Z,7.05
2023-01-13T23:34:54.544Z,7.65
2023-01-13T23:39:56.589Z,6.68
2023-01-13T23:44:58.738Z,7.25
2023-01-13T23:50:00.833Z,5.50
2023-01-13T23:55:03.321Z,7.75
